createdAt,value
2018-11-22T12:18:21.961Z,102078.55
2018-11-22T12:23:25.226Z,102075.72
2018-11-22T12:28:28.855Z,102071.94
2018-11-22T12:33:32.130Z,102070.54
2018-11-22T12:38:36.289Z,102069.57
2018-11-22T12:43:39.897Z,102064.59
2018-11-22T12:48:43.099Z,102059.63
2018-11-22T12:53:46.681Z,102059.63
2018-11-22T12:58:49.926Z,102048.80
2018-11-22T13:03:53.219Z,102056.19
2018-11-22T13:08:56.628Z,102060.48
2018-11-22T13:14:00.120Z,102064.99
2018-11-22T13:19:03.423Z,102064.78
2018-11-22T13:24:06.850Z,102060.02
2018-11-22T13:29:10.438Z,102058.41
2018-11-22T13:34:13.631Z,102060.02
2018-11-22T13:39:16.934Z,102062.31
2018-11-22T13:44:20.177Z,102052.80
2018-11-22T13:49:23.526Z,102056.75
2018-11-22T13:54:26.918Z,102058.33
2018-11-22T13:59:30.594Z,102059.27
2018-11-22T14:04:33.873Z,102056.25
2018-11-22T14:09:37.053Z,102051.98
2018-11-22T14:14:40.300Z,102057.06
2018-11-22T14:19:43.505Z,102060.74
2018-11-22T14:24:46.755Z,102065.56
2018-11-22T14:29:50.568Z,102058.13
2018-11-22T14:34:56.541Z,102055.03
2018-11-22T14:39:57.235Z,102052.14
2018-11-22T14:45:00.454Z,102052.07
2018-11-22T14:50:08.568Z,102057.00
2018-11-22T14:55:11.758Z,102058.10
2018-11-22T15:00:14.970Z,102057.81
2018-11-22T15:05:18.239Z,102051.59
2018-11-22T15:10:21.550Z,102057.30
2018-11-22T15:15:24.959Z,102061.30
2018-11-22T15:20:28.267Z,102074.92
2018-11-22T15:25:31.460Z,102073.53
2018-11-22T15:30:34.609Z,102077.41
2018-11-22T15:35:37.806Z,102067.95
2018-11-22T15:40:41.024Z,102073.09
2018-11-22T15:45:44.371Z,102077.19
2018-11-22T15:50:47.826Z,102082.64
2018-11-22T15:55:51.981Z,102075.58
2018-11-22T16:00:55.235Z,102079.21
2018-11-22T16:05:58.464Z,102079.78
2018-11-22T16:11:01.632Z,102071.69
2018-11-22T16:16:05.686Z,102076.44
2018-11-22T16:21:08.978Z,102074.33
2018-11-22T16:26:12.148Z,102078.22
2018-11-22T16:31:15.440Z,102074.40
2018-11-22T16:36:19.853Z,102080.07
2018-11-22T16:41:23.587Z,102079.21
2018-11-22T16:46:27.014Z,102076.74
2018-11-22T16:51:30.182Z,102086.38
2018-11-22T16:56:35.138Z,102081.39
2018-11-22T17:01:38.392Z,102081.34
2018-11-22T17:06:41.676Z,102083.98
2018-11-22T17:11:44.926Z,102087.30
2018-11-22T17:16:48.284Z,102084.90
2018-11-22T17:21:51.816Z,102086.45
2018-11-22T17:26:55.104Z,102089.16
2018-11-22T17:31:58.504Z,102096.69
2018-11-22T17:37:03.615Z,102096.55
2018-11-22T17:42:06.831Z,102096.16
2018-11-22T17:47:09.973Z,102100.74
2018-11-22T17:52:13.398Z,102095.93
2018-11-22T17:57:16.613Z,102103.75
2018-11-22T18:02:19.729Z,102093.30
2018-11-22T18:07:23.570Z,102086.00
2018-11-22T18:12:26.803Z,102096.09
2018-11-22T18:17:29.994Z,102099.03
2018-11-22T18:22:33.292Z,102103.52
2018-11-22T18:27:36.500Z,102103.30
2018-11-22T18:32:39.702Z,102100.13
2018-11-22T18:37:42.849Z,102114.01
2018-11-22T18:42:46.170Z,102108.66
2018-11-22T18:47:49.398Z,102108.90
2018-11-22T18:52:52.926Z,102107.58
2018-11-22T18:58:07.430Z,102103.52
2018-11-22T19:03:23.080Z,102104.47
2018-11-22T19:08:44.888Z,102101.60
2018-11-22T19:13:53.156Z,102095.77
2018-11-22T19:19:03.003Z,102091.26
2018-11-22T19:24:22.242Z,102092.05
2018-11-22T19:29:40.119Z,102082.28
2018-11-22T19:34:47.846Z,102084.76
2018-11-22T19:39:55.430Z,102096.80
2018-11-22T19:45:05.271Z,102104.15
2018-11-22T19:50:19.188Z,102102.83
2018-11-22T19:55:39.878Z,102101.11
2018-11-22T20:00:54.559Z,102103.75
2018-11-22T20:06:11.781Z,102105.08
2018-11-22T20:11:30.754Z,102110.22
2018-11-22T20:16:41.443Z,102118.42
2018-11-22T20:21:54.415Z,102115.09
2018-11-22T20:27:04.778Z,102112.75
2018-11-22T20:32:20.494Z,102107.94
2018-11-22T20:37:28.343Z,102107.54
2018-11-22T20:42:37.509Z,102113.38
2018-11-22T20:47:54.705Z,102111.43
2018-11-22T20:53:14.757Z,102108.80
2018-11-22T20:58:21.128Z,102104.77
2018-11-22T21:03:24.386Z,102113.27
2018-11-22T21:08:27.531Z,102109.65
2018-11-22T21:13:38.959Z,102108.73
2018-11-22T21:18:42.284Z,102101.17
2018-11-22T21:23:57.747Z,102105.92
2018-11-22T21:29:05.128Z,102100.95
2018-11-22T21:34:08.523Z,102099.41
2018-11-22T21:39:11.781Z,102103.06
2018-11-22T21:44:15.302Z,102104.21
2018-11-22T21:49:18.557Z,102114.63
2018-11-22T21:54:22.077Z,102102.13
2018-11-22T21:59:25.610Z,102101.41
2018-11-22T22:04:28.926Z,102108.56
2018-11-22T22:09:32.258Z,102106.78
2018-11-22T22:14:35.479Z,102098.94
2018-11-22T22:19:38.724Z,102099.33
2018-11-22T22:24:41.941Z,102102.36
2018-11-22T22:29:45.225Z,102094.81
2018-11-22T22:34:48.435Z,102109.63
2018-11-22T22:39:51.701Z,102110.09
2018-11-22T22:44:55.010Z,102107.45
2018-11-22T22:49:58.175Z,102108.90
2018-11-22T22:55:01.499Z,102108.90
2018-11-22T23:00:09.207Z,102105.11
2018-11-22T23:05:12.457Z,102093.81
2018-11-22T23:10:15.549Z,102100.02
2018-11-22T23:15:18.825Z,102092.11
2018-11-22T23:20:21.984Z,102084.72
2018-11-22T23:25:25.138Z,102080.01
2018-11-22T23:30:28.386Z,102091.64
2018-11-22T23:35:31.731Z,102089.77
2018-11-22T23:40:35.092Z,102087.23
2018-11-22T23:45:38.247Z,102086.91
2018-11-22T23:50:41.451Z,102091.72
2018-11-22T23:55:44.667Z,102090.73
